Time;durP1;ratioP1;P1;durP2;ratioP2;P2;SDS_P1;SDS_P2;PMS_P1;PMS_P2;Temp;Humidity;BMP_temperature;BMP_pressure;BME280_temperature;BME280_humidity;BME280_pressure;Samples;Min_cycle;Max_cycle;Signal;HPM_P1;HPM_P2
2022/12/15 00:38:44;;;;;;;1999.90;999.90;;;;;;;-1.27;86.67;98193.06;10296416;23;20028;-77
2022/12/15 00:42:45;;;;;;;1999.90;999.90;;;;;;;-1.29;87.05;98191.31;10280515;23;20107;-77
2022/12/15 00:46:55;;;;;;;1999.90;999.90;;;;;;;-1.27;87.57;98189.66;10274957;23;20024;-77
2022/12/15 00:50:57;;;;;;;1999.90;999.90;;;;;;;-1.29;87.17;98188.75;10279852;23;20400;-77
2022/12/15 01:21:03;;;;;;;1999.90;999.90;;;;;;;-1.38;87.93;98217.41;10284240;23;20012;-77
2022/12/15 01:25:06;;;;;;;1999.90;999.90;;;;;;;-1.37;88.31;98221.69;10276884;23;20032;-76
2022/12/15 01:29:08;;;;;;;1999.90;999.90;;;;;;;-1.32;87.63;98227.75;10279022;23;20764;-76
2022/12/15 01:33:11;;;;;;;1999.90;999.90;;;;;;;-1.30;87.32;98228.63;10270920;23;20044;-77
2022/12/15 01:37:12;;;;;;;;;;;;;;;-1.30;87.83;98221.00;10281527;23;20027;-76
2022/12/15 01:41:13;;;;;;;1999.90;999.90;;;;;;;-1.34;87.28;98231.06;10278385;23;20003;-77
2022/12/15 01:45:27;;;;;;;1999.90;999.90;;;;;;;-1.41;87.55;98222.44;10270919;23;20020;-77
2022/12/15 01:49:30;;;;;;;1999.90;999.90;;;;;;;-1.46;87.57;98233.31;10278277;23;20085;-76
2022/12/15 01:53:36;;;;;;;1999.90;999.90;;;;;;;-1.47;87.23;98242.66;10295549;23;20056;-76
2022/12/15 01:57:38;;;;;;;1999.90;999.90;;;;;;;-1.52;88.07;98254.41;10278994;23;20052;-76
2022/12/15 02:01:40;;;;;;;1999.90;999.90;;;;;;;-1.56;87.70;98255.16;10268676;23;20112;-77
2022/12/15 02:05:41;;;;;;;1999.90;999.90;;;;;;;-1.55;87.52;98252.66;10276295;23;20297;-76
2022/12/15 02:09:47;;;;;;;1999.90;999.90;;;;;;;-1.55;87.82;98245.00;10294657;23;20020;-77
2022/12/15 02:14:04;;;;;;;1999.90;999.90;;;;;;;-1.53;87.84;98238.28;10278553;23;20044;-77
2022/12/15 02:18:18;;;;;;;1999.90;999.90;;;;;;;-1.53;87.52;98242.50;10270823;23;20107;-76
2022/12/15 02:22:32;;;;;;;1999.90;999.90;;;;;;;-1.52;87.83;98251.88;10277616;23;20706;-76
2022/12/15 02:27:06;;;;;;;1999.90;999.90;;;;;;;-1.53;88.40;98257.78;10278744;23;20107;-76
2022/12/15 02:31:48;;;;;;;1999.90;999.90;;;;;;;-1.53;87.74;98257.78;10272183;23;20052;-76
2022/12/15 02:35:56;;;;;;;;;;;;;;;-1.52;87.81;98265.44;10302840;23;20032;-76
2022/12/15 02:39:58;;;;;;;1999.90;999.90;;;;;;;-1.49;87.84;98263.78;10278545;23;20007;-76
2022/12/15 02:44:03;;;;;;;1999.90;999.90;;;;;;;-1.46;88.28;98267.28;10277930;23;20024;-76
2022/12/15 02:48:20;;;;;;;1999.90;999.90;;;;;;;-1.45;88.39;98271.53;10270339;23;20071;-76
2022/12/15 02:53:01;;;;;;;1999.90;999.90;;;;;;;-1.48;88.74;98263.84;10274399;23;20051;-77
2022/12/15 02:57:18;;;;;;;1999.90;999.90;;;;;;;-1.46;88.73;98267.28;10278424;23;20020;-76
2022/12/15 03:01:28;;;;;;;1999.90;999.90;;;;;;;-1.49;87.94;98263.78;10270934;23;20466;-76
2022/12/15 03:05:30;;;;;;;1999.90;999.90;;;;;;;-1.58;87.96;98265.31;10282712;23;20476;-77
2022/12/15 03:09:32;;;;;;;1999.90;999.90;;;;;;;-1.66;87.58;98256.59;10283883;23;20048;-76
2022/12/15 03:13:33;;;;;;;1999.90;999.90;;;;;;;-1.75;87.22;98268.25;10280926;23;20047;-76
2022/12/15 03:17:37;;;;;;;1999.90;999.90;;;;;;;-1.86;86.61;98268.81;10283328;23;20028;-76
2022/12/15 03:21:38;;;;;;;1999.90;999.90;;;;;;;-2.01;87.55;98265.00;10283481;23;20497;-76
2022/12/15 03:25:40;;;;;;;1999.90;999.90;;;;;;;-2.08;87.54;98265.66;10283968;23;20027;-76
2022/12/15 03:29:41;;;;;;;1999.90;999.90;;;;;;;-2.09;87.66;98261.41;10282586;23;20055;-75
2022/12/15 03:33:42;;;;;;;1999.90;999.90;;;;;;;-2.10;87.35;98263.09;10270539;23;20033;-75
2022/12/15 03:37:44;;;;;;;1999.90;999.90;;;;;;;-2.15;88.30;98262.09;10255555;23;20063;-75
2022/12/15 03:41:45;;;;;;;1999.90;999.90;;;;;;;-2.22;87.65;98255.13;10280345;23;20492;-75
2022/12/15 03:45:47;;;;;;;1999.90;999.90;;;;;;;-2.27;88.40;98252.44;10274831;23;20063;-75
2022/12/15 03:49:48;;;;;;;1999.90;999.90;;;;;;;-2.21;88.71;98260.22;10299441;23;20062;-75
2022/12/15 03:53:50;;;;;;;1999.90;999.90;;;;;;;-2.19;88.30;98256.06;10281569;23;20039;-75
2022/12/15 03:57:52;;;;;;;1999.90;999.90;;;;;;;-2.13;89.16;98263.00;10282662;23;20052;-76
2022/12/15 04:01:53;;;;;;;1999.90;999.90;;;;;;;-2.10;89.26;98267.31;10272313;23;20021;-75
2022/12/15 04:05:55;;;;;;;1999.90;999.90;;;;;;;-2.04;89.36;98272.56;10277783;23;20592;-76
2022/12/15 04:09:56;;;;;;;1999.90;999.90;;;;;;;-2.03;89.57;98264.97;10297915;23;20091;-75
2022/12/15 04:13:58;;;;;;;1999.90;999.90;;;;;;;-1.96;89.01;98271.94;10280302;23;20382;-75
2022/12/15 04:18:01;;;;;;;1999.90;999.90;;;;;;;-1.92;89.17;98263.56;10299189;23;20059;-75
2022/12/15 04:22:03;;;;;;;1999.90;999.90;;;;;;;-1.91;88.80;98269.53;10254888;23;20075;-75
2022/12/15 05:35:31;;;;;;;1999.90;999.90;;;;;;;-1.97;87.89;98308.38;10276563;23;20028;-75
2022/12/15 05:39:33;;;;;;;1999.90;999.90;;;;;;;-1.98;87.84;98304.09;10276839;23;20059;-75
2022/12/15 05:43:34;;;;;;;1999.90;999.90;;;;;;;-1.98;87.24;98306.63;10276592;23;20835;-75
2022/12/15 05:47:36;;;;;;;1999.90;999.90;;;;;;;-2.05;87.22;98316.59;10268839;23;20154;-75
2022/12/15 05:51:39;;;;;;;1999.90;999.90;;;;;;;-2.12;86.72;98325.75;10252091;23;20745;-75
2022/12/15 05:55:42;;;;;;;1999.90;999.90;;;;;;;-2.17;87.28;98307.81;10276933;23;20032;-75
2022/12/15 05:59:44;;;;;;;1999.90;999.90;;;;;;;-2.21;86.46;98328.88;10274518;23;20111;-74
2022/12/15 06:03:46;;;;;;;1999.90;999.90;;;;;;;-2.31;86.90;98334.53;10266216;23;20113;-75
2022/12/15 06:07:48;;;;;;;1999.90;999.90;;;;;;;-2.36;86.85;98323.34;10276075;23;20116;-74
2022/12/15 06:11:50;;;;;;;1999.90;999.90;;;;;;;-2.41;86.55;98318.97;10291120;23;20669;-74
2022/12/15 06:16:00;;;;;;;1999.90;999.90;;;;;;;-2.55;86.87;98313.47;10249770;23;20595;-74
2022/12/15 06:20:03;;;;;;;1999.90;999.90;;;;;;;-2.63;86.76;98315.78;10275718;23;20114;-74
2022/12/15 06:24:05;;;;;;;1999.90;999.90;;;;;;;-2.75;86.35;98330.66;10273142;23;20561;-74
2022/12/15 06:28:07;;;;;;;1999.90;999.90;;;;;;;-2.81;86.78;98333.88;10272513;23;20055;-73
2022/12/15 06:32:08;;;;;;;1999.90;999.90;;;;;;;-2.85;86.82;98329.53;10278294;23;20039;-75
2022/12/15 06:36:16;;;;;;;1999.90;999.90;;;;;;;-2.93;86.93;98330.94;10278210;23;20039;-75
2022/12/15 06:40:18;;;;;;;1999.90;999.90;;;;;;;-2.98;87.11;98329.94;10282718;23;20061;-74
2022/12/15 06:44:19;;;;;;;1999.90;999.90;;;;;;;-3.06;87.12;98333.91;10280432;23;20024;-75
2022/12/15 06:48:22;;;;;;;1999.90;999.90;;;;;;;-3.16;87.65;98327.69;10279557;23;20033;-74
2022/12/15 06:52:25;;;;;;;1999.90;999.90;;;;;;;-3.20;87.12;98330.09;10292541;23;20023;-75
2022/12/15 06:56:30;;;;;;;1999.90;999.90;;;;;;;-3.34;87.22;98324.56;10301976;23;20029;-74
2022/12/15 07:00:35;;;;;;;1999.90;999.90;;;;;;;-3.45;87.85;98324.19;10297967;23;20051;-77
2022/12/15 07:04:37;;;;;;;1999.90;999.90;;;;;;;-3.55;87.77;98308.63;10318936;23;20016;-74
2022/12/15 07:08:39;;;;;;;1999.90;999.90;;;;;;;-3.59;87.47;98301.69;10301616;23;20074;-75
2022/12/15 07:12:42;;;;;;;1999.90;999.90;;;;;;;-3.73;87.70;98313.94;10306876;23;20262;-74
2022/12/15 07:16:44;;;;;;;1999.90;999.90;;;;;;;-3.83;87.83;98322.88;10330055;23;20020;-74
2022/12/15 07:20:46;;;;;;;;;;;;;;;-3.81;88.47;98322.94;10326913;23;20024;-73
2022/12/15 07:24:50;;;;;;;1999.90;999.90;;;;;;;-3.83;88.69;98319.50;10315238;23;19916;-73
2022/12/15 07:28:52;;;;;;;1999.90;999.90;;;;;;;-3.85;88.77;98326.19;10319832;23;20285;-79
2022/12/15 07:32:55;;;;;;;1999.90;999.90;;;;;;;-3.79;88.73;98349.22;10276930;23;20025;-74
2022/12/15 07:36:56;;;;;;;1999.90;999.90;;;;;;;-3.83;88.47;98358.41;10309072;23;20025;-74
2022/12/15 07:41:03;;;;;;;1999.90;999.90;;;;;;;-3.90;88.90;98348.84;10295796;23;20021;-74
2022/12/15 07:45:06;;;;;;;1999.90;999.90;;;;;;;-3.85;89.40;98357.47;10295246;23;20020;-73
2022/12/15 07:49:09;;;;;;;1999.90;999.90;;;;;;;-3.79;89.46;98354.28;10272780;23;20111;-74
2022/12/15 07:53:10;;;;;;;1999.90;999.90;;;;;;;-3.76;89.39;98352.75;10292366;23;20103;-73
2022/12/15 07:57:12;;;;;;;1999.90;999.90;;;;;;;-3.77;89.31;98378.03;10275370;23;20020;-74
2022/12/15 08:01:14;;;;;;;1999.90;999.90;;;;;;;-3.67;90.28;98380.94;10266386;23;20024;-73
2022/12/15 08:05:17;;;;;;;1999.90;999.90;;;;;;;-3.48;90.10;98394.25;10272523;23;20495;-73
2022/12/15 08:09:18;;;;;;;1999.90;999.90;;;;;;;-3.28;89.78;98405.09;10275396;23;20035;-73
2022/12/15 08:29:11;;;;;;;1999.90;999.90;;;;;;;-2.02;86.60;98400.59;10011548;23;20629;-73
2022/12/15 08:33:33;;;;;;;1999.90;999.90;;;;;;;-1.76;84.42;98416.63;9992922;23;20039;-73
2022/12/15 08:37:35;;;;;;;1999.90;999.90;;;;;;;-1.51;83.01;98408.84;10025060;23;20242;-73
2022/12/15 08:41:36;;;;;;;1999.90;999.90;;;;;;;-1.31;82.41;98414.47;10023035;23;20102;-73
2022/12/15 08:45:39;;;;;;;1999.90;999.90;;;;;;;-1.10;81.19;98412.47;9995861;23;20350;-74
2022/12/15 08:49:41;;;;;;;1999.90;999.90;;;;;;;-0.94;80.25;98429.88;10026249;23;20023;-74
2022/12/15 08:53:44;;;;;;;1999.90;999.90;;;;;;;-0.69;79.31;98433.91;10026021;23;20061;-74
2022/12/15 08:57:46;;;;;;;1999.90;999.90;;;;;;;-0.50;78.76;98434.34;10027480;23;20031;-74
2022/12/15 09:01:47;;;;;;;1999.90;999.90;;;;;;;-0.19;77.89;98423.16;10104258;23;20525;-74
2022/12/15 09:05:49;;;;;;;1999.90;999.90;;;;;;;0.06;77.26;98427.13;10202268;23;20033;-74
2022/12/15 09:09:51;;;;;;;1999.90;999.90;;;;;;;0.07;75.59;98424.59;10275252;23;20542;-75
2022/12/15 09:13:52;;;;;;;1999.90;999.90;;;;;;;0.21;75.08;98425.75;10276022;23;20099;-74
2022/12/15 09:17:55;;;;;;;1999.90;999.90;;;;;;;0.38;74.72;98425.22;10273733;23;20123;-75
2022/12/15 09:21:58;;;;;;;1999.90;999.90;;;;;;;0.55;74.13;98421.31;10272767;23;20032;-75
2022/12/15 09:26:01;;;;;;;1999.90;999.90;;;;;;;0.70;73.38;98421.59;10290695;23;20078;-75
2022/12/15 09:30:03;;;;;;;1999.90;999.90;;;;;;;0.79;72.10;98423.47;10285534;23;20079;-75
2022/12/15 09:34:05;;;;;;;1999.90;999.90;;;;;;;0.75;71.82;98426.81;10275297;23;20119;-75
2022/12/15 09:38:07;;;;;;;1999.90;999.90;;;;;;;0.83;71.73;98430.34;10277090;23;20020;-76
2022/12/15 09:42:22;;;;;;;1999.90;999.90;;;;;;;0.87;71.47;98437.22;10294382;23;20349;-76
2022/12/15 09:46:52;;;;;;;1999.90;999.90;;;;;;;0.69;71.52;98442.84;10267790;23;20039;-76
2022/12/15 09:50:56;;;;;;;1999.90;999.90;;;;;;;0.72;71.17;98448.06;10279287;23;20107;-76
2022/12/15 09:55:00;;;;;;;1999.90;999.90;;;;;;;0.74;70.88;98443.84;10276930;23;20035;-76
2022/12/15 09:59:15;;;;;;;1999.90;999.90;;;;;;;0.64;71.24;98441.06;10276564;23;20034;-76
2022/12/15 10:03:21;;;;;;;1999.90;999.90;;;;;;;0.51;72.00;98429.72;10270071;23;20051;-77
2022/12/15 10:07:33;;;;;;;1999.90;999.90;;;;;;;0.43;72.00;98416.81;10278224;23;20031;-77
2022/12/15 10:11:55;;;;;;;1999.90;999.90;;;;;;;0.31;72.48;98426.78;10279947;23;20044;-77
2022/12/15 10:16:19;;;;;;;1999.90;999.90;;;;;;;0.17;72.28;98430.72;10274344;23;20403;-77
2022/12/15 10:20:25;;;;;;;1999.90;999.90;;;;;;;0.07;72.72;98418.63;10278797;23;20316;-77
2022/12/15 10:24:30;;;;;;;1999.90;999.90;;;;;;;-0.03;72.88;98413.31;10253364;23;20024;-77
2022/12/15 10:29:05;;;;;;;1999.90;999.90;;;;;;;-0.03;73.52;98410.75;10279008;23;20477;-77
2022/12/15 10:33:23;;;;;;;1999.90;999.90;;;;;;;-0.07;73.69;98403.88;10270459;23;20031;-76
2022/12/15 10:37:24;;;;;;;1999.90;999.90;;;;;;;-0.05;73.44;98409.88;10179965;23;20609;-76
2022/12/15 10:41:31;;;;;;;1999.90;999.90;;;;;;;-0.03;73.51;98404.78;10178646;23;20112;-76
2022/12/15 10:45:38;;;;;;;1999.90;999.90;;;;;;;-0.05;73.51;98392.00;10175296;23;20025;-76
2022/12/15 10:49:39;;;;;;;1999.90;999.90;;;;;;;-0.07;73.73;98380.06;10180205;23;20453;-76
2022/12/15 10:53:59;;;;;;;1999.90;999.90;;;;;;;-0.01;73.53;98364.84;10196362;23;20451;-76
2022/12/15 10:58:13;;;;;;;1999.90;999.90;;;;;;;-0.06;74.27;98364.78;10181859;23;20120;-76
2022/12/15 11:02:31;;;;;;;1999.90;999.90;;;;;;;0.03;73.75;98358.16;10175395;23;20044;-77
2022/12/15 11:06:36;;;;;;;1999.90;999.90;;;;;;;0.07;72.80;98355.69;10180689;23;20387;-77
2022/12/15 11:15:21;;;;;;;1999.90;999.90;;;;;;;0.38;72.42;98341.84;10174856;23;20049;-77
2022/12/15 11:19:43;;;;;;;1999.90;999.90;;;;;;;0.47;71.97;98326.69;10179853;23;20044;-77
2022/12/15 11:23:57;;;;;;;1999.90;999.90;;;;;;;0.60;71.74;98326.06;10182365;23;20029;-77
2022/12/15 11:28:02;;;;;;;1999.90;999.90;;;;;;;0.69;71.50;98316.84;10179803;23;20358;-77
2022/12/15 11:32:04;;;;;;;1999.90;999.90;;;;;;;0.68;70.89;98302.34;10189526;23;20025;-77
2022/12/15 11:36:17;;;;;;;1999.90;999.90;;;;;;;0.76;70.89;98298.25;10217035;23;20103;-77
2022/12/15 11:40:37;;;;;;;1999.90;999.90;;;;;;;0.85;71.02;98285.59;10246541;23;20108;-76
2022/12/15 11:44:51;;;;;;;1999.90;999.90;;;;;;;1.03;70.93;98275.66;10228339;23;20104;-76
2022/12/15 11:49:07;;;;;;;1999.90;999.90;;;;;;;1.10;70.46;98274.06;10221406;23;20056;-76
2022/12/15 11:53:53;;;;;;;1999.90;999.90;;;;;;;1.04;70.33;98262.03;10227041;23;20049;-75
2022/12/15 11:58:09;;;;;;;1999.90;999.90;;;;;;;0.96;70.49;98257.66;10226906;23;20109;-75
2022/12/15 12:02:25;;;;;;;1999.90;999.90;;;;;;;0.96;70.04;98255.97;10217711;23;20111;-75
2022/12/15 12:06:35;;;;;;;1999.90;999.90;;;;;;;1.12;70.45;98246.84;10224570;23;20321;-75
2022/12/15 12:10:52;;;;;;;1999.90;999.90;;;;;;;1.19;69.50;98246.94;10225367;23;20024;-76
2022/12/15 12:15:07;;;;;;;1999.90;999.90;;;;;;;1.24;69.08;98251.25;10227103;23;20404;-75
2022/12/15 12:19:14;;;;;;;1999.90;999.90;;;;;;;1.23;69.12;98267.44;10219387;23;20032;-75
2022/12/15 12:23:30;;;;;;;1999.90;999.90;;;;;;;1.29;69.24;98262.41;10216394;23;20554;-75
2022/12/15 12:28:04;;;;;;;1999.90;999.90;;;;;;;1.33;68.89;98257.34;10219510;23;20031;-75
2022/12/15 12:32:39;;;;;;;1999.90;999.90;;;;;;;1.33;68.44;98261.63;10215466;23;20811;-75
2022/12/15 12:36:56;;;;;;;1999.90;999.90;;;;;;;1.28;69.08;98253.91;10268229;23;20032;-75
2022/12/15 12:41:46;;;;;;;1999.90;999.90;;;;;;;1.24;69.26;98241.88;10222439;23;20161;-75
2022/12/15 12:45:56;;;;;;;1999.90;999.90;;;;;;;1.18;68.96;98240.09;10239047;23;20090;-75
2022/12/15 12:50:17;;;;;;;1999.90;999.90;;;;;;;1.09;68.88;98227.22;10293926;23;20688;-75
2022/12/15 12:54:51;;;;;;;1999.90;999.90;;;;;;;1.07;68.35;98217.78;10271207;23;20021;-75
2022/12/15 12:59:28;;;;;;;1999.90;999.90;;;;;;;1.05;68.63;98212.66;10274055;23;20024;-76
2022/12/15 13:04:07;;;;;;;1999.90;999.90;;;;;;;0.99;68.69;98209.16;10269705;23;20072;-76
2022/12/15 13:08:14;;;;;;;1999.90;999.90;;;;;;;0.92;68.92;98186.91;10251510;23;20099;-76
2022/12/15 13:13:07;;;;;;;1999.90;999.90;;;;;;;0.90;69.50;98177.53;10295723;23;20016;-76
2022/12/15 13:17:31;;;;;;;1999.90;999.90;;;;;;;0.85;68.76;98157.84;10263761;23;20028;-76
2022/12/15 13:21:54;;;;;;;1999.90;999.90;;;;;;;0.84;68.93;98153.56;10277988;23;20031;-76
2022/12/15 13:26:30;;;;;;;1999.90;999.90;;;;;;;0.85;68.83;98147.63;10279846;23;20024;-76
2022/12/15 13:30:35;;;;;;;1999.90;999.90;;;;;;;0.83;69.30;98144.19;10264739;23;20056;-76
2022/12/15 13:34:45;;;;;;;1999.90;999.90;;;;;;;0.86;69.63;98142.53;10279437;23;20024;-76
2022/12/15 13:39:22;;;;;;;1999.90;999.90;;;;;;;0.86;69.82;98132.31;10187178;23;20721;-76
2022/12/15 13:43:48;;;;;;;1999.90;999.90;;;;;;;0.87;69.42;98143.41;10174046;23;20026;-76
2022/12/15 13:47:55;;;;;;;1999.90;999.90;;;;;;;0.91;68.73;98145.19;10188956;23;20025;-76
2022/12/15 13:52:53;;;;;;;1999.90;999.90;;;;;;;0.91;68.94;98140.06;10173755;23;20045;-76
2022/12/15 13:57:19;;;;;;;1999.90;999.90;;;;;;;0.94;69.21;98144.34;10148576;23;20029;-76
2022/12/15 14:01:54;;;;;;;1999.90;999.90;;;;;;;0.96;68.93;98148.66;10160019;23;20088;-76
2022/12/15 14:06:02;;;;;;;1999.90;999.90;;;;;;;0.96;68.91;98158.00;10149706;23;20365;-76
2022/12/15 14:11:03;;;;;;;1999.90;999.90;;;;;;;0.96;69.53;98160.56;10231437;23;20024;-76
2022/12/15 14:15:33;;;;;;;1999.90;999.90;;;;;;;0.96;69.80;98160.56;10242395;23;20035;-76
2022/12/15 14:19:40;;;;;;;1999.90;999.90;;;;;;;0.95;69.62;98166.50;10252937;23;20103;-76
2022/12/15 14:23:43;;;;;;;1999.90;999.90;;;;;;;0.89;69.10;98163.00;10293699;23;20059;-76
2022/12/15 14:28:23;;;;;;;1999.90;999.90;;;;;;;0.84;69.54;98148.47;10252873;23;20108;-76
2022/12/15 14:32:54;;;;;;;1999.90;999.90;;;;;;;0.77;69.50;98136.47;10246589;23;20044;-76
2022/12/15 14:37:02;;;;;;;1999.90;999.90;;;;;;;0.69;69.29;98133.78;10277187;23;20531;-76
2022/12/15 14:41:22;;;;;;;1999.90;999.90;;;;;;;0.61;69.69;98135.38;10274064;23;20024;-76
2022/12/15 14:45:27;;;;;;;1999.90;999.90;;;;;;;0.55;69.92;98143.81;10242816;23;20166;-76
2022/12/15 14:49:39;;;;;;;1999.90;999.90;;;;;;;0.51;70.40;98144.59;10249272;23;20021;-76
2022/12/15 14:53:46;;;;;;;1999.90;999.90;;;;;;;0.46;70.49;98160.69;10276579;23;20048;-76
2022/12/15 14:57:51;;;;;;;1999.90;999.90;;;;;;;0.39;70.51;98157.19;10278924;23;20037;-76
2022/12/15 15:02:01;;;;;;;1999.90;999.90;;;;;;;0.29;70.81;98156.16;10268135;23;20048;-76
2022/12/15 15:06:06;;;;;;;1999.90;999.90;;;;;;;0.25;70.74;98156.09;10248506;23;20032;-76
2022/12/15 15:10:22;;;;;;;1999.90;999.90;;;;;;;0.19;71.41;98163.66;10291708;23;20115;-76
2022/12/15 15:14:30;;;;;;;1999.90;999.90;;;;;;;0.12;71.65;98175.44;10251174;23;20405;-76
2022/12/15 15:18:32;;;;;;;1999.90;999.90;;;;;;;0.04;71.75;98177.00;10272113;23;20052;-76
2022/12/15 15:22:41;;;;;;;1999.90;999.90;;;;;;;-0.02;71.89;98177.75;10249898;23;20031;-76
2022/12/15 15:26:43;;;;;;;1999.90;999.90;;;;;;;-0.11;72.31;98182.69;10278873;23;20610;-76
2022/12/15 15:30:50;;;;;;;1999.90;999.90;;;;;;;-0.17;72.54;98191.94;10273946;23;20745;-77
2022/12/15 15:34:56;;;;;;;1999.90;999.90;;;;;;;-0.25;72.99;98184.13;10256058;23;20024;-77
2022/12/15 15:38:59;;;;;;;1999.90;999.90;;;;;;;-0.34;73.52;98189.94;10251463;23;20055;-77
2022/12/15 15:43:09;;;;;;;1999.90;999.90;;;;;;;-0.42;73.61;98193.16;10277986;23;20115;-76
2022/12/15 15:47:20;;;;;;;1999.90;999.90;;;;;;;-0.49;74.08;98189.63;10247556;23;20035;-77
2022/12/15 15:51:26;;;;;;;1999.90;999.90;;;;;;;-0.55;74.02;98176.75;10280296;23;20074;-77
2022/12/15 15:55:30;;;;;;;1999.90;999.90;;;;;;;-0.58;74.76;98184.34;10253450;23;20440;-77
2022/12/15 15:59:41;;;;;;;1999.90;999.90;;;;;;;-0.66;74.85;98181.66;10279370;23;20082;-77
2022/12/15 16:03:42;;;;;;;1999.90;999.90;;;;;;;-0.74;75.38;98188.25;10272773;23;20080;-76
2022/12/15 16:07:45;;;;;;;1999.90;999.90;;;;;;;-0.79;75.21;98187.31;10283515;23;20032;-76
2022/12/15 16:11:47;;;;;;;1999.90;999.90;;;;;;;-0.83;75.17;98188.09;10282811;23;20091;-76
2022/12/15 16:15:48;;;;;;;1999.90;999.90;;;;;;;-0.87;75.45;98191.41;10247301;23;20120;-75
2022/12/15 16:19:50;;;;;;;1999.90;999.90;;;;;;;-0.92;75.59;98190.44;10295000;23;20622;-75
2022/12/15 16:23:53;;;;;;;1999.90;999.90;;;;;;;-0.95;76.32;98205.66;10278014;23;20043;-75
2022/12/15 16:27:54;;;;;;;;;;;;;;;-1.05;76.60;98214.78;10299061;23;20067;-77
2022/12/15 16:31:56;;;;;;;1999.90;999.90;;;;;;;-1.07;76.35;98208.81;10276131;23;19951;-77
2022/12/15 16:35:58;;;;;;;1999.90;999.90;;;;;;;-1.10;77.11;98207.84;10286089;23;20475;-77
2022/12/15 16:40:00;;;;;;;1999.90;999.90;;;;;;;-1.15;77.19;98209.44;10280288;23;20020;-77
2022/12/15 16:44:01;;;;;;;1999.90;999.90;;;;;;;-1.16;76.70;98213.69;10255660;23;20397;-76
2022/12/15 16:48:02;;;;;;;1999.90;999.90;;;;;;;-1.17;76.59;98222.16;10249486;23;20059;-77
2022/12/15 16:52:04;;;;;;;1999.90;999.90;;;;;;;-1.16;76.94;98221.31;10230920;23;20020;-77
2022/12/15 16:56:11;;;;;;;1999.90;999.90;;;;;;;-1.12;76.53;98222.25;10255938;23;20107;-77
2022/12/15 17:00:19;;;;;;;1999.90;999.90;;;;;;;-1.10;76.69;98218.91;10251403;23;20116;-76
2022/12/15 17:04:20;;;;;;;1999.90;999.90;;;;;;;-1.09;77.28;98220.63;10279300;23;20063;-76
2022/12/15 17:08:26;;;;;;;1999.90;999.90;;;;;;;-1.08;76.97;98222.34;10230092;23;20038;-76
2022/12/15 17:12:29;;;;;;;1999.90;999.90;;;;;;;-1.08;76.29;98224.88;10254174;23;20024;-76
2022/12/15 17:16:30;;;;;;;;;;;;;;;-1.07;75.82;98210.50;10262269;23;20052;-77
2022/12/15 17:20:31;;;;;;;1999.90;999.90;;;;;;;-1.10;75.73;98212.94;10305730;23;19926;-76
2022/12/15 17:24:33;;;;;;;1999.90;999.90;;;;;;;-1.08;75.76;98213.84;10282244;23;20547;-77
2022/12/15 17:28:39;;;;;;;1999.90;999.90;;;;;;;-1.10;75.48;98208.72;10283236;23;20035;-77
2022/12/15 17:32:42;;;;;;;1999.90;999.90;;;;;;;-1.13;75.46;98202.69;10272936;23;20361;-77
2022/12/15 17:36:44;;;;;;;1999.90;999.90;;;;;;;-1.15;74.99;98192.47;10282834;23;20095;-76
2022/12/15 17:40:47;;;;;;;1999.90;999.90;;;;;;;-1.18;75.15;98191.56;10280265;23;20032;-76
2022/12/15 17:44:49;;;;;;;1999.90;999.90;;;;;;;-1.19;75.46;98197.47;10281956;23;20044;-77
2022/12/15 17:48:52;;;;;;;1999.90;999.90;;;;;;;-1.17;75.31;98195.81;10272931;23;20028;-76
2022/12/15 17:52:54;;;;;;;1999.90;999.90;;;;;;;-1.17;75.08;98193.28;10279563;23;20052;-76
2022/12/15 17:56:55;;;;;;;1999.90;999.90;;;;;;;-1.17;75.33;98195.81;10282109;23;20262;-76
2022/12/15 18:00:56;;;;;;;1999.90;999.90;;;;;;;-1.19;75.26;98193.25;10273202;23;20067;-77
2022/12/15 18:04:58;;;;;;;1999.90;999.90;;;;;;;-1.17;74.89;98198.38;10280311;23;20016;-77
2022/12/15 18:09:00;;;;;;;1999.90;999.90;;;;;;;-1.17;75.04;98188.19;10277012;23;20446;-75
2022/12/15 18:13:01;;;;;;;1999.90;999.90;;;;;;;-1.20;75.27;98185.56;10275023;23;20020;-76
2022/12/15 18:17:03;;;;;;;1999.90;999.90;;;;;;;-1.22;75.86;98181.31;10269932;23;20111;-75
2022/12/15 18:21:15;;;;;;;1999.90;999.90;;;;;;;-1.20;75.44;98183.88;10251300;23;20048;-75
2022/12/15 18:25:25;;;;;;;1999.90;999.90;;;;;;;-1.22;75.83;98180.44;10277627;23;20013;-75
2022/12/15 18:29:26;;;;;;;1999.90;999.90;;;;;;;-1.22;75.72;98177.91;10275822;23;20035;-76
2022/12/15 18:33:29;;;;;;;1999.90;999.90;;;;;;;-1.22;75.99;98177.91;10274076;23;20032;-75
2022/12/15 18:37:33;;;;;;;1999.90;999.90;;;;;;;-1.23;75.58;98173.63;10276087;23;20020;-75
2022/12/15 18:41:34;;;;;;;1999.90;999.90;;;;;;;-1.25;75.31;98180.38;10274465;23;20471;-76
2022/12/15 18:45:35;;;;;;;1999.90;999.90;;;;;;;-1.25;75.47;98188.03;10274163;23;20107;-77
2022/12/15 18:49:37;;;;;;;1999.90;999.90;;;;;;;-1.26;75.44;98187.16;10280403;23;20111;-76
2022/12/15 18:53:39;;;;;;;1999.90;999.90;;;;;;;-1.30;75.75;98185.34;10277906;23;20016;-77
2022/12/15 18:57:41;;;;;;;1999.90;999.90;;;;;;;-1.32;74.99;98192.09;10273944;23;20074;-76
2022/12/15 19:01:46;;;;;;;1999.90;999.90;;;;;;;-1.36;75.65;98185.22;10278176;23;20028;-76
2022/12/15 19:05:52;;;;;;;1999.90;999.90;;;;;;;-1.41;75.17;98194.44;10279360;23;20013;-76
2022/12/15 19:09:53;;;;;;;1999.90;999.90;;;;;;;-1.44;75.26;98189.25;10280202;23;20303;-76
2022/12/15 19:13:59;;;;;;;1999.90;999.90;;;;;;;-1.47;74.93;98193.41;10275798;23;20044;-76
2022/12/15 19:22:26;;;;;;;1999.90;999.90;;;;;;;-1.56;75.00;98197.50;10277864;23;20503;-76
2022/12/15 19:26:28;;;;;;;1999.90;999.90;;;;;;;-1.58;74.56;98190.63;10279761;23;20076;-76
2022/12/15 19:30:34;;;;;;;1999.90;999.90;;;;;;;-1.61;74.03;98188.88;10273931;23;20055;-76
2022/12/15 19:34:42;;;;;;;1999.90;999.90;;;;;;;-1.63;74.59;98200.69;10279322;23;20636;-77
2022/12/15 19:38:45;;;;;;;1999.90;999.90;;;;;;;-1.62;74.38;98197.31;10280591;23;20048;-77
2022/12/15 19:42:47;;;;;;;1999.90;999.90;;;;;;;-1.62;74.47;98193.91;10279787;23;20391;-76
2022/12/15 19:46:49;;;;;;;1999.90;999.90;;;;;;;-1.63;74.22;98190.50;10275800;23;20020;-77
2022/12/15 19:50:50;;;;;;;1999.90;999.90;;;;;;;-1.63;73.85;98193.06;10284307;23;20024;-77
2022/12/15 19:54:52;;;;;;;1999.90;999.90;;;;;;;-1.64;73.94;98193.88;10280654;23;20024;-78
2022/12/15 19:58:54;;;;;;;1999.90;999.90;;;;;;;-1.64;73.65;98198.09;10284085;23;20475;-77
2022/12/15 20:02:56;;;;;;;1999.90;999.90;;;;;;;-1.66;73.93;98199.75;10275148;23;20447;-77
2022/12/15 20:07:02;;;;;;;1999.90;999.90;;;;;;;-1.65;73.76;98211.66;10299909;23;20028;-77
2022/12/15 20:11:08;;;;;;;1999.90;999.90;;;;;;;-1.68;73.92;98212.44;10282446;23;20099;-77
2022/12/15 20:15:21;;;;;;;1999.90;999.90;;;;;;;-1.71;74.57;98209.84;10276952;23;20054;-77
2022/12/15 20:19:22;;;;;;;1999.90;999.90;;;;;;;-1.72;73.72;98207.25;10257285;23;20078;-77
2022/12/15 20:23:25;;;;;;;1999.90;999.90;;;;;;;-1.74;74.22;98207.22;10254596;23;20338;-76
2022/12/15 20:27:27;;;;;;;1999.90;999.90;;;;;;;-1.77;74.47;98211.38;10282044;23;20399;-76
2022/12/15 20:31:28;;;;;;;1999.90;999.90;;;;;;;-1.78;73.98;98215.59;10298101;23;20020;-77
2022/12/15 20:35:33;;;;;;;1999.90;999.90;;;;;;;-1.82;74.40;98223.94;10289003;23;20027;-77
2022/12/15 20:39:34;;;;;;;1999.90;999.90;;;;;;;-1.84;75.02;98210.34;10281289;23;20083;-77
2022/12/15 20:43:36;;;;;;;1999.90;999.90;;;;;;;-1.87;74.73;98215.34;10278340;23;20021;-77
2022/12/15 20:47:40;;;;;;;1999.90;999.90;;;;;;;-1.88;74.83;98221.25;10279849;23;20040;-77
2022/12/15 20:51:42;;;;;;;1999.90;999.90;;;;;;;-1.89;75.45;98228.03;10279597;23;20301;-77